sensor_id;sensor_type;location;lat;lon;timestamp;pressure;altitude;pressure_sealevel;temperature;humidity
70952;BME280;69214;55.880;37.542;2023-11-21T00:01:58;98371.78;;;-9.01;73.24
70952;BME280;69214;55.880;37.542;2023-11-21T00:04:24;98348.41;;;-9.15;72.92
70952;BME280;69214;55.880;37.542;2023-11-21T00:06:51;98375.56;;;-8.94;72.84
70952;BME280;69214;55.880;37.542;2023-11-21T00:09:17;98376.66;;;-8.96;73.43
70952;BME280;69214;55.880;37.542;2023-11-21T00:11:44;98373.31;;;-8.98;73.19
70952;BME280;69214;55.880;37.542;2023-11-21T00:14:11;98342.97;;;-9.13;72.90
70952;BME280;69214;55.880;37.542;2023-11-21T00:16:37;98367.22;;;-8.99;73.26
70952;BME280;69214;55.880;37.542;2023-11-21T00:19:03;98343.69;;;-9.11;73.44
70952;BME280;69214;55.880;37.542;2023-11-21T00:21:30;98380.16;;;-8.96;73.08
70952;BME280;69214;55.880;37.542;2023-11-21T00:23:56;98368.75;;;-8.96;73.27
70952;BME280;69214;55.880;37.542;2023-11-21T00:26:22;98343.94;;;-9.15;73.80
70952;BME280;69214;55.880;37.542;2023-11-21T00:28:57;98365.41;;;-8.89;73.44
70952;BME280;69214;55.880;37.542;2023-11-21T00:31:23;98366.25;;;-8.88;73.29
70952;BME280;69214;55.880;37.542;2023-11-21T00:33:49;98375.44;;;-8.83;72.88
70952;BME280;69214;55.880;37.542;2023-11-21T00:36:14;98368.63;;;-8.85;73.09
70952;BME280;69214;55.880;37.542;2023-11-21T00:38:40;98361.25;;;-8.91;72.65
70952;BME280;69214;55.880;37.542;2023-11-21T00:41:06;98377.53;;;-8.86;72.64
70952;BME280;69214;55.880;37.542;2023-11-21T00:43:33;98352.63;;;-8.93;72.91
70952;BME280;69214;55.880;37.542;2023-11-21T00:46:04;98356.94;;;-8.92;73.35
70952;BME280;69214;55.880;37.542;2023-11-21T00:48:30;98347.47;;;-8.95;73.23
70952;BME280;69214;55.880;37.542;2023-11-21T00:50:56;98365.00;;;-8.84;73.49
70952;BME280;69214;55.880;37.542;2023-11-21T00:53:22;98350.41;;;-8.88;73.11
70952;BME280;69214;55.880;37.542;2023-11-21T00:55:48;98360.00;;;-8.87;73.10
70952;BME280;69214;55.880;37.542;2023-11-21T00:58:13;98343.56;;;-8.91;73.35
70952;BME280;69214;55.880;37.542;2023-11-21T01:00:40;98332.44;;;-8.94;72.93
70952;BME280;69214;55.880;37.542;2023-11-21T01:03:07;98327.72;;;-9.00;72.85
70952;BME280;69214;55.880;37.542;2023-11-21T01:05:35;98356.38;;;-8.96;72.83
70952;BME280;69214;55.880;37.542;2023-11-21T01:08:01;98346.06;;;-8.99;72.55
70952;BME280;69214;55.880;37.542;2023-11-21T01:10:27;98351.75;;;-9.03;72.88
70952;BME280;69214;55.880;37.542;2023-11-21T01:12:53;98338.41;;;-9.11;73.05
70952;BME280;69214;55.880;37.542;2023-11-21T01:15:19;98357.75;;;-8.92;73.03
70952;BME280;69214;55.880;37.542;2023-11-21T01:17:46;98357.91;;;-8.93;73.01
70952;BME280;69214;55.880;37.542;2023-11-21T01:20:12;98346.06;;;-8.99;73.23
70952;BME280;69214;55.880;37.542;2023-11-21T01:22:40;98338.41;;;-9.02;73.11
70952;BME280;69214;55.880;37.542;2023-11-21T01:25:06;98368.06;;;-8.89;73.06
70952;BME280;69214;55.880;37.542;2023-11-21T01:27:34;98329.09;;;-9.06;72.85
70952;BME280;69214;55.880;37.542;2023-11-21T01:30:01;98365.25;;;-8.97;72.48
70952;BME280;69214;55.880;37.542;2023-11-21T01:32:30;98363.03;;;-9.01;72.79
70952;BME280;69214;55.880;37.542;2023-11-21T01:34:56;98357.03;;;-9.03;72.75
70952;BME280;69214;55.880;37.542;2023-11-21T01:37:22;98334.91;;;-9.22;72.63
70952;BME280;69214;55.880;37.542;2023-11-21T01:39:48;98329.31;;;-9.28;71.99
70952;BME280;69214;55.880;37.542;2023-11-21T01:42:14;98365.50;;;-9.09;72.67
70952;BME280;69214;55.880;37.542;2023-11-21T01:44:41;98378.72;;;-9.09;72.54
70952;BME280;69214;55.880;37.542;2023-11-21T01:47:08;98376.34;;;-9.12;72.81
70952;BME280;69214;55.880;37.542;2023-11-21T01:49:37;98372.03;;;-9.13;72.54
70952;BME280;69214;55.880;37.542;2023-11-21T01:52:03;98354.09;;;-9.20;72.26
70952;BME280;69214;55.880;37.542;2023-11-21T01:54:30;98370.06;;;-9.21;72.56
70952;BME280;69214;55.880;37.542;2023-11-21T01:57:00;98363.69;;;-9.19;72.88
70952;BME280;69214;55.880;37.542;2023-11-21T01:59:38;98363.25;;;-9.24;72.81
70952;BME280;69214;55.880;37.542;2023-11-21T02:02:07;98345.31;;;-9.30;72.84
70952;BME280;69214;55.880;37.542;2023-11-21T02:04:36;98364.25;;;-9.15;72.98
70952;BME280;69214;55.880;37.542;2023-11-21T02:07:03;98354.78;;;-9.18;72.87
70952;BME280;69214;55.880;37.542;2023-11-21T02:09:32;98369.25;;;-9.12;72.22
70952;BME280;69214;55.880;37.542;2023-11-21T02:11:59;98360.06;;;-9.18;72.44
70952;BME280;69214;55.880;37.542;2023-11-21T02:14:26;98361.31;;;-9.22;72.17
70952;BME280;69214;55.880;37.542;2023-11-21T02:16:55;98361.44;;;-9.23;72.45
70952;BME280;69214;55.880;37.542;2023-11-21T02:19:23;98353.91;;;-9.37;71.59
70952;BME280;69214;55.880;37.542;2023-11-21T02:21:52;98360.00;;;-9.37;71.53
70952;BME280;69214;55.880;37.542;2023-11-21T02:24:23;98363.34;;;-9.35;72.15
70952;BME280;69214;55.880;37.542;2023-11-21T02:26:50;98369.59;;;-9.36;72.17
70952;BME280;69214;55.880;37.542;2023-11-21T02:29:21;98369.75;;;-9.37;71.89
70952;BME280;69214;55.880;37.542;2023-11-21T02:31:54;98361.66;;;-9.45;72.68
70952;BME280;69214;55.880;37.542;2023-11-21T02:34:22;98373.06;;;-9.45;71.74
70952;BME280;69214;55.880;37.542;2023-11-21T02:36:48;98378.31;;;-9.45;72.05
70952;BME280;69214;55.880;37.542;2023-11-21T02:39:17;98360.06;;;-9.58;72.07
70952;BME280;69214;55.880;37.542;2023-11-21T02:41:44;98364.91;;;-9.63;71.98
70952;BME280;69214;55.880;37.542;2023-11-21T02:44:10;98377.72;;;-9.58;72.14
70952;BME280;69214;55.880;37.542;2023-11-21T02:46:37;98355.41;;;-9.75;72.32
70952;BME280;69214;55.880;37.542;2023-11-21T02:49:03;98365.72;;;-9.72;72.21
70952;BME280;69214;55.880;37.542;2023-11-21T02:51:32;98374.78;;;-9.65;72.24
70952;BME280;69214;55.880;37.542;2023-11-21T02:53:59;98377.41;;;-9.65;72.28
70952;BME280;69214;55.880;37.542;2023-11-21T02:56:27;98357.34;;;-9.77;72.03
70952;BME280;69214;55.880;37.542;2023-11-21T02:58:57;98387.31;;;-9.57;72.17
70952;BME280;69214;55.880;37.542;2023-11-21T03:01:24;98395.09;;;-9.56;72.61
70952;BME280;69214;55.880;37.542;2023-11-21T03:03:50;98391.50;;;-9.55;72.35
70952;BME280;69214;55.880;37.542;2023-11-21T03:06:22;98400.81;;;-9.51;72.33
70952;BME280;69214;55.880;37.542;2023-11-21T03:08:48;98400.69;;;-9.49;73.36
70952;BME280;69214;55.880;37.542;2023-11-21T03:11:14;98395.13;;;-9.46;72.52
70952;BME280;69214;55.880;37.542;2023-11-21T03:13:41;98406.53;;;-9.45;72.59
70952;BME280;69214;55.880;37.542;2023-11-21T03:16:11;98400.28;;;-9.44;72.48
70952;BME280;69214;55.880;37.542;2023-11-21T03:18:38;98378.41;;;-9.56;72.42
70952;BME280;69214;55.880;37.542;2023-11-21T03:21:07;98398.03;;;-9.49;72.64
70952;BME280;69214;55.880;37.542;2023-11-21T03:23:37;98382.47;;;-9.52;72.50
70952;BME280;69214;55.880;37.542;2023-11-21T03:26:03;98392.75;;;-9.49;73.02
70952;BME280;69214;55.880;37.542;2023-11-21T03:28:30;98387.78;;;-9.42;72.61
70952;BME280;69214;55.880;37.542;2023-11-21T03:30:57;98387.91;;;-9.44;72.64
70952;BME280;69214;55.880;37.542;2023-11-21T03:33:24;98366.75;;;-9.54;72.91
70952;BME280;69214;55.880;37.542;2023-11-21T03:35:51;98380.97;;;-9.45;72.99
70952;BME280;69214;55.880;37.542;2023-11-21T03:38:19;98366.22;;;-9.48;72.42
70952;BME280;69214;55.880;37.542;2023-11-21T03:40:46;98380.69;;;-9.42;72.66
70952;BME280;69214;55.880;37.542;2023-11-21T03:43:13;98388.34;;;-9.39;73.10
70952;BME280;69214;55.880;37.542;2023-11-21T03:45:40;98406.03;;;-9.30;72.78
70952;BME280;69214;55.880;37.542;2023-11-21T03:48:07;98407.00;;;-9.31;72.81
70952;BME280;69214;55.880;37.542;2023-11-21T03:50:36;98408.69;;;-9.30;72.84
70952;BME280;69214;55.880;37.542;2023-11-21T03:53:01;98400.31;;;-9.35;72.73
70952;BME280;69214;55.880;37.542;2023-11-21T03:55:29;98396.53;;;-9.42;72.84
70952;BME280;69214;55.880;37.542;2023-11-21T03:57:58;98385.16;;;-9.42;73.14
70952;BME280;69214;55.880;37.542;2023-11-21T04:00:24;98416.88;;;-9.33;72.66
70952;BME280;69214;55.880;37.542;2023-11-21T04:02:53;98418.69;;;-9.33;73.18
70952;BME280;69214;55.880;37.542;2023-11-21T04:05:20;98373.41;;;-9.59;73.13
70952;BME280;69214;55.880;37.542;2023-11-21T04:07:49;98359.78;;;-9.64;73.20
70952;BME280;69214;55.880;37.542;2023-11-21T04:10:17;98407.28;;;-9.34;72.85
70952;BME280;69214;55.880;37.542;2023-11-21T04:12:45;98408.50;;;-9.38;72.64
70952;BME280;69214;55.880;37.542;2023-11-21T04:15:11;98406.84;;;-9.39;72.90
70952;BME280;69214;55.880;37.542;2023-11-21T04:17:41;98409.63;;;-9.40;72.74
70952;BME280;69214;55.880;37.542;2023-11-21T04:20:07;98407.09;;;-9.42;73.04
70952;BME280;69214;55.880;37.542;2023-11-21T04:22:44;98360.03;;;-9.67;72.92
70952;BME280;69214;55.880;37.542;2023-11-21T04:25:11;98415.19;;;-9.34;73.35
70952;BME280;69214;55.880;37.542;2023-11-21T04:27:39;98414.94;;;-9.31;73.31
70952;BME280;69214;55.880;37.542;2023-11-21T04:30:06;98399.63;;;-9.37;73.30
70952;BME280;69214;55.880;37.542;2023-11-21T04:32:33;98414.41;;;-9.25;73.04
70952;BME280;69214;55.880;37.542;2023-11-21T04:34:58;98413.56;;;-9.25;73.11
70952;BME280;69214;55.880;37.542;2023-11-21T04:37:24;98393.63;;;-9.39;73.30
70952;BME280;69214;55.880;37.542;2023-11-21T04:39:50;98376.78;;;-9.48;73.25
70952;BME280;69214;55.880;37.542;2023-11-21T04:42:16;98426.94;;;-9.17;73.13
70952;BME280;69214;55.880;37.542;2023-11-21T04:44:43;98431.78;;;-9.22;73.04
70952;BME280;69214;55.880;37.542;2023-11-21T04:47:10;98428.56;;;-9.26;73.04
70952;BME280;69214;55.880;37.542;2023-11-21T04:49:36;98437.78;;;-9.20;72.98
70952;BME280;69214;55.880;37.542;2023-11-21T04:52:02;98428.31;;;-9.23;72.74
70952;BME280;69214;55.880;37.542;2023-11-21T04:54:30;98431.09;;;-9.24;72.96
70952;BME280;69214;55.880;37.542;2023-11-21T04:56:56;98436.25;;;-9.23;72.96
70952;BME280;69214;55.880;37.542;2023-11-21T04:59:22;98424.53;;;-9.30;72.84
70952;BME280;69214;55.880;37.542;2023-11-21T05:01:53;98407.63;;;-9.48;72.68
70952;BME280;69214;55.880;37.542;2023-11-21T05:04:20;98430.59;;;-9.39;72.85
70952;BME280;69214;55.880;37.542;2023-11-21T05:06:48;98449.78;;;-9.37;73.02
70952;BME280;69214;55.880;37.542;2023-11-21T05:09:14;98431.66;;;-9.51;73.13
70952;BME280;69214;55.880;37.542;2023-11-21T05:11:42;98445.88;;;-9.42;73.38
70952;BME280;69214;55.880;37.542;2023-11-21T05:14:08;98438.75;;;-9.52;73.07
70952;BME280;69214;55.880;37.542;2023-11-21T05:16:35;98456.84;;;-9.47;73.28
70952;BME280;69214;55.880;37.542;2023-11-21T05:19:01;98459.47;;;-9.47;73.39
70952;BME280;69214;55.880;37.542;2023-11-21T05:21:28;98457.97;;;-9.40;73.30
70952;BME280;69214;55.880;37.542;2023-11-21T05:23:55;98444.22;;;-9.43;73.60
70952;BME280;69214;55.880;37.542;2023-11-21T05:26:21;98448.56;;;-9.33;73.60
70952;BME280;69214;55.880;37.542;2023-11-21T05:28:47;98455.28;;;-9.19;73.64
70952;BME280;69214;55.880;37.542;2023-11-21T05:31:15;98445.25;;;-9.25;73.46
70952;BME280;69214;55.880;37.542;2023-11-21T05:33:41;98452.25;;;-9.15;73.47
70952;BME280;69214;55.880;37.542;2023-11-21T05:36:07;98423.16;;;-9.24;72.93
70952;BME280;69214;55.880;37.542;2023-11-21T05:38:35;98445.88;;;-9.12;72.44
70952;BME280;69214;55.880;37.542;2023-11-21T05:41:02;98446.97;;;-9.15;73.07
70952;BME280;69214;55.880;37.542;2023-11-21T05:43:30;98436.38;;;-9.24;73.40
70952;BME280;69214;55.880;37.542;2023-11-21T05:45:56;98447.09;;;-9.16;73.49
70952;BME280;69214;55.880;37.542;2023-11-21T05:48:22;98436.09;;;-9.21;72.84
70952;BME280;69214;55.880;37.542;2023-11-21T05:50:49;98444.34;;;-9.15;73.20
70952;BME280;69214;55.880;37.542;2023-11-21T05:53:15;98429.28;;;-9.24;73.60
70952;BME280;69214;55.880;37.542;2023-11-21T05:55:42;98427.34;;;-9.22;73.29
70952;BME280;69214;55.880;37.542;2023-11-21T05:58:08;98450.06;;;-9.09;73.17
70952;BME280;69214;55.880;37.542;2023-11-21T06:00:34;98453.53;;;-9.09;72.93
70952;BME280;69214;55.880;37.542;2023-11-21T06:03:01;98452.28;;;-9.05;72.93
70952;BME280;69214;55.880;37.542;2023-11-21T06:05:27;98451.75;;;-8.99;73.31
70952;BME280;69214;55.880;37.542;2023-11-21T06:07:54;98465.00;;;-8.89;73.00
70952;BME280;69214;55.880;37.542;2023-11-21T06:10:23;98466.13;;;-8.82;72.98
70952;BME280;69214;55.880;37.542;2023-11-21T06:12:51;98465.72;;;-8.77;72.94
70952;BME280;69214;55.880;37.542;2023-11-21T06:15:17;98437.34;;;-8.85;72.61
70952;BME280;69214;55.880;37.542;2023-11-21T06:17:46;98464.50;;;-8.73;72.94
70952;BME280;69214;55.880;37.542;2023-11-21T06:20:15;98457.38;;;-8.83;72.71
70952;BME280;69214;55.880;37.542;2023-11-21T06:22:46;98472.44;;;-8.73;73.12
70952;BME280;69214;55.880;37.542;2023-11-21T06:25:13;98468.97;;;-8.64;72.93
70952;BME280;69214;55.880;37.542;2023-11-21T06:27:43;98430.50;;;-8.88;72.97
70952;BME280;69214;55.880;37.542;2023-11-21T06:30:14;98461.75;;;-8.53;73.20
70952;BME280;69214;55.880;37.542;2023-11-21T06:32:42;98458.69;;;-8.48;72.93
70952;BME280;69214;55.880;37.542;2023-11-21T06:35:11;98448.25;;;-8.50;72.57
70952;BME280;69214;55.880;37.542;2023-11-21T06:37:39;98460.53;;;-8.39;72.80
70952;BME280;69214;55.880;37.542;2023-11-21T06:40:05;98461.63;;;-8.41;72.51
70952;BME280;69214;55.880;37.542;2023-11-21T06:42:32;98464.97;;;-8.39;72.43
70952;BME280;69214;55.880;37.542;2023-11-21T06:44:59;98457.16;;;-8.51;72.04
70952;BME280;69214;55.880;37.542;2023-11-21T06:47:32;98454.50;;;-8.60;72.53
70952;BME280;69214;55.880;37.542;2023-11-21T06:49:58;98470.78;;;-8.55;72.65
70952;BME280;69214;55.880;37.542;2023-11-21T06:52:24;98484.72;;;-8.53;72.70
70952;BME280;69214;55.880;37.542;2023-11-21T06:54:51;98476.91;;;-8.55;72.44
70952;BME280;69214;55.880;37.542;2023-11-21T06:57:17;98476.91;;;-8.55;72.90
70952;BME280;69214;55.880;37.542;2023-11-21T06:59:43;98482.63;;;-8.50;72.68
70952;BME280;69214;55.880;37.542;2023-11-21T07:02:09;98476.25;;;-8.47;72.86
70952;BME280;69214;55.880;37.542;2023-11-21T07:04:36;98475.97;;;-8.44;72.87
70952;BME280;69214;55.880;37.542;2023-11-21T07:07:03;98454.25;;;-8.47;72.40
70952;BME280;69214;55.880;37.542;2023-11-21T07:09:30;98480.13;;;-8.32;71.43
70952;BME280;69214;55.880;37.542;2023-11-21T07:11:57;98451.47;;;-8.46;72.29
70952;BME280;69214;55.880;37.542;2023-11-21T07:14:23;98459.25;;;-8.44;71.67
70952;BME280;69214;55.880;37.542;2023-11-21T07:16:51;98485.97;;;-8.28;71.92
70952;BME280;69214;55.880;37.542;2023-11-21T07:19:20;98480.00;;;-8.30;71.09
70952;BME280;69214;55.880;37.542;2023-11-21T07:21:47;98471.34;;;-8.32;71.56
70952;BME280;69214;55.880;37.542;2023-11-21T07:24:16;98466.66;;;-8.38;71.51
70952;BME280;69214;55.880;37.542;2023-11-21T07:26:44;98464.28;;;-8.41;71.69
70952;BME280;69214;55.880;37.542;2023-11-21T07:29:09;98487.94;;;-8.30;71.52
70952;BME280;69214;55.880;37.542;2023-11-21T07:31:37;98488.50;;;-8.27;72.05
70952;BME280;69214;55.880;37.542;2023-11-21T07:34:04;98493.91;;;-8.28;71.37
70952;BME280;69214;55.880;37.542;2023-11-21T07:36:30;98493.38;;;-8.22;72.07
70952;BME280;69214;55.880;37.542;2023-11-21T07:38:55;98488.63;;;-8.19;71.60
70952;BME280;69214;55.880;37.542;2023-11-21T07:41:21;98479.44;;;-8.14;71.54
70952;BME280;69214;55.880;37.542;2023-11-21T07:43:48;98477.09;;;-8.18;71.30
70952;BME280;69214;55.880;37.542;2023-11-21T07:46:14;98486.69;;;-8.07;71.78
70952;BME280;69214;55.880;37.542;2023-11-21T07:48:41;98468.88;;;-8.05;72.09
70952;BME280;69214;55.880;37.542;2023-11-21T07:51:09;98473.03;;;-7.93;71.40
70952;BME280;69214;55.880;37.542;2023-11-21T07:53:36;98490.59;;;-7.72;72.25
70952;BME280;69214;55.880;37.542;2023-11-21T07:56:05;98497.41;;;-7.60;71.78
70952;BME280;69214;55.880;37.542;2023-11-21T07:58:31;98481.50;;;-7.51;71.41
70952;BME280;69214;55.880;37.542;2023-11-21T08:01:00;98488.28;;;-7.29;71.01
70952;BME280;69214;55.880;37.542;2023-11-21T08:03:26;98475.03;;;-7.29;70.69
70952;BME280;69214;55.880;37.542;2023-11-21T08:05:53;98478.59;;;-7.10;70.58
70952;BME280;69214;55.880;37.542;2023-11-21T08:08:19;98481.81;;;-7.07;70.94
70952;BME280;69214;55.880;37.542;2023-11-21T08:10:45;98470.66;;;-7.10;70.09
70952;BME280;69214;55.880;37.542;2023-11-21T08:13:26;98438.63;;;-7.27;70.39
70952;BME280;69214;55.880;37.542;2023-11-21T08:15:57;98472.41;;;-6.92;71.28
70952;BME280;69214;55.880;37.542;2023-11-21T08:18:30;98466.16;;;-7.00;70.06
70952;BME280;69214;55.880;37.542;2023-11-21T08:20:58;98467.94;;;-6.91;70.56
70952;BME280;69214;55.880;37.542;2023-11-21T08:23:24;98475.50;;;-6.96;70.31
70952;BME280;69214;55.880;37.542;2023-11-21T08:25:53;98420.53;;;-7.31;70.28
70952;BME280;69214;55.880;37.542;2023-11-21T08:28:23;98465.47;;;-7.02;70.97
70952;BME280;69214;55.880;37.542;2023-11-21T08:30:54;98470.75;;;-7.02;71.35
70952;BME280;69214;55.880;37.542;2023-11-21T08:33:20;98476.22;;;-7.04;71.54
70952;BME280;69214;55.880;37.542;2023-11-21T08:35:46;98457.59;;;-7.22;71.33
70952;BME280;69214;55.880;37.542;2023-11-21T08:38:12;98474.47;;;-7.23;71.74
70952;BME280;69214;55.880;37.542;2023-11-21T08:40:38;98477.69;;;-7.29;71.28
70952;BME280;69214;55.880;37.542;2023-11-21T08:43:04;98459.84;;;-7.27;71.84
70952;BME280;69214;55.880;37.542;2023-11-21T08:45:31;98463.88;;;-7.23;72.16
70952;BME280;69214;55.880;37.542;2023-11-21T08:48:01;98456.91;;;-7.24;71.23
70952;BME280;69214;55.880;37.542;2023-11-21T08:50:27;98464.88;;;-7.33;72.42
70952;BME280;69214;55.880;37.542;2023-11-21T08:52:54;98460.72;;;-7.45;72.71
70952;BME280;69214;55.880;37.542;2023-11-21T08:55:19;98454.16;;;-7.41;72.09
70952;BME280;69214;55.880;37.542;2023-11-21T08:57:45;98462.78;;;-7.39;72.15
70952;BME280;69214;55.880;37.542;2023-11-21T09:00:14;98464.31;;;-7.37;72.15
70952;BME280;69214;55.880;37.542;2023-11-21T09:02:43;98463.88;;;-7.32;71.78
70952;BME280;69214;55.880;37.542;2023-11-21T09:05:11;98475.16;;;-7.21;71.43
70952;BME280;69214;55.880;37.542;2023-11-21T09:07:39;98481.16;;;-7.19;71.53
70952;BME280;69214;55.880;37.542;2023-11-21T09:10:07;98460.13;;;-7.30;71.57
70952;BME280;69214;55.880;37.542;2023-11-21T09:12:36;98492.19;;;-7.23;71.10
70952;BME280;69214;55.880;37.542;2023-11-21T09:15:04;98477.84;;;-7.30;71.16
70952;BME280;69214;55.880;37.542;2023-11-21T09:17:33;98478.69;;;-7.39;70.90
70952;BME280;69214;55.880;37.542;2023-11-21T09:20:01;98477.59;;;-7.46;70.87
70952;BME280;69214;55.880;37.542;2023-11-21T09:22:26;98476.34;;;-7.52;71.21
70952;BME280;69214;55.880;37.542;2023-11-21T09:24:55;98486.38;;;-7.46;71.22
70952;BME280;69214;55.880;37.542;2023-11-21T09:27:24;98494.47;;;-7.47;70.24
70952;BME280;69214;55.880;37.542;2023-11-21T09:29:51;98490.28;;;-7.50;71.44
70952;BME280;69214;55.880;37.542;2023-11-21T09:34:48;98484.69;;;-7.37;71.21
70952;BME280;69214;55.880;37.542;2023-11-21T09:37:14;98476.88;;;-7.39;71.32
70952;BME280;69214;55.880;37.542;2023-11-21T09:39:40;98497.63;;;-7.25;70.79
70952;BME280;69214;55.880;37.542;2023-11-21T09:42:15;98485.22;;;-7.24;71.43
70952;BME280;69214;55.880;37.542;2023-11-21T09:44:54;98490.34;;;-7.13;71.17
70952;BME280;69214;55.880;37.542;2023-11-21T09:47:24;98489.75;;;-7.07;71.08
70952;BME280;69214;55.880;37.542;2023-11-21T09:49:51;98503.28;;;-7.00;70.75
70952;BME280;69214;55.880;37.542;2023-11-21T09:52:27;98502.53;;;-6.93;70.53
70952;BME280;69214;55.880;37.542;2023-11-21T09:54:54;98498.50;;;-6.97;69.96
70952;BME280;69214;55.880;37.542;2023-11-21T09:57:23;98513.19;;;-7.02;70.76
70952;BME280;69214;55.880;37.542;2023-11-21T09:59:51;98514.44;;;-7.06;70.60
70952;BME280;69214;55.880;37.542;2023-11-21T10:02:26;98510.28;;;-7.09;70.95
70952;BME280;69214;55.880;37.542;2023-11-21T10:04:55;98487.31;;;-7.28;70.41
70952;BME280;69214;55.880;37.542;2023-11-21T10:07:22;98509.19;;;-7.16;70.39
70952;BME280;69214;55.880;37.542;2023-11-21T10:09:51;98511.94;;;-7.08;70.79
70952;BME280;69214;55.880;37.542;2023-11-21T10:12:17;98501.63;;;-7.11;70.79
70952;BME280;69214;55.880;37.542;2023-11-21T10:14:47;98480.03;;;-7.16;71.15
70952;BME280;69214;55.880;37.542;2023-11-21T10:17:14;98499.81;;;-7.10;71.21
70952;BME280;69214;55.880;37.542;2023-11-21T10:19:42;98510.25;;;-6.99;70.77
70952;BME280;69214;55.880;37.542;2023-11-21T10:22:09;98506.75;;;-7.00;71.37
70952;BME280;69214;55.880;37.542;2023-11-21T10:24:35;98496.03;;;-7.08;70.44
70952;BME280;69214;55.880;37.542;2023-11-21T10:27:04;98506.50;;;-7.06;70.81
70952;BME280;69214;55.880;37.542;2023-11-21T10:29:30;98509.56;;;-7.01;70.14
70952;BME280;69214;55.880;37.542;2023-11-21T10:31:56;98515.84;;;-7.02;69.80
70952;BME280;69214;55.880;37.542;2023-11-21T10:34:24;98522.53;;;-7.08;70.91
70952;BME280;69214;55.880;37.542;2023-11-21T10:36:50;98499.28;;;-7.24;70.07
70952;BME280;69214;55.880;37.542;2023-11-21T10:39:17;98518.81;;;-7.25;70.32
70952;BME280;69214;55.880;37.542;2023-11-21T10:41:45;98470.06;;;-7.51;70.70
70952;BME280;69214;55.880;37.542;2023-11-21T10:44:15;98518.81;;;-7.25;70.75
70952;BME280;69214;55.880;37.542;2023-11-21T10:46:48;98497.22;;;-7.30;71.14
70952;BME280;69214;55.880;37.542;2023-11-21T10:49:18;98516.31;;;-7.26;70.30
70952;BME280;69214;55.880;37.542;2023-11-21T10:51:45;98506.84;;;-7.29;70.68
70952;BME280;69214;55.880;37.542;2023-11-21T10:54:11;98515.34;;;-7.25;70.85
70952;BME280;69214;55.880;37.542;2023-11-21T10:56:39;98505.16;;;-7.30;70.89
70952;BME280;69214;55.880;37.542;2023-11-21T10:59:10;98518.97;;;-7.26;70.90
70952;BME280;69214;55.880;37.542;2023-11-21T11:01:45;98507.38;;;-7.25;70.91
70952;BME280;69214;55.880;37.542;2023-11-21T11:04:12;98517.84;;;-7.24;71.07
70952;BME280;69214;55.880;37.542;2023-11-21T11:07:05;98522.44;;;-7.26;71.08
70952;BME280;69214;55.880;37.542;2023-11-21T11:09:35;98524.13;;;-7.25;70.75
70952;BME280;69214;55.880;37.542;2023-11-21T11:12:04;98493.47;;;-7.37;71.31
70952;BME280;69214;55.880;37.542;2023-11-21T11:14:34;98521.63;;;-7.26;71.00
70952;BME280;69214;55.880;37.542;2023-11-21T11:17:00;98512.28;;;-7.30;71.11
70952;BME280;69214;55.880;37.542;2023-11-21T11:19:30;98521.06;;;-7.30;71.05
70952;BME280;69214;55.880;37.542;2023-11-21T11:32:06;98529.00;;;-7.30;71.96
70952;BME280;69214;55.880;37.542;2023-11-21T11:39:30;98545.75;;;-7.39;72.05
70952;BME280;69214;55.880;37.542;2023-11-21T11:42:01;98524.03;;;-7.52;71.85
70952;BME280;69214;55.880;37.542;2023-11-21T11:55:02;98523.06;;;-7.70;71.49
70952;BME280;69214;55.880;37.542;2023-11-21T11:57:34;98540.06;;;-7.63;71.27
70952;BME280;69214;55.880;37.542;2023-11-21T12:00:20;98538.09;;;-7.61;71.45
70952;BME280;69214;55.880;37.542;2023-11-21T12:02:50;98532.13;;;-7.63;71.63
70952;BME280;69214;55.880;37.542;2023-11-21T12:05:26;98526.97;;;-7.65;71.99
70952;BME280;69214;55.880;37.542;2023-11-21T12:08:00;98536.28;;;-7.51;72.03
70952;BME280;69214;55.880;37.542;2023-11-21T12:10:28;98542.69;;;-7.44;71.93
70952;BME280;69214;55.880;37.542;2023-11-21T12:13:02;98547.44;;;-7.38;72.14
70952;BME280;69214;55.880;37.542;2023-11-21T12:15:28;98549.38;;;-7.40;72.41
70952;BME280;69214;55.880;37.542;2023-11-21T12:17:56;98560.81;;;-7.39;71.97
70952;BME280;69214;55.880;37.542;2023-11-21T12:20:24;98557.91;;;-7.46;71.89
70952;BME280;69214;55.880;37.542;2023-11-21T12:22:57;98529.59;;;-7.65;71.94
70952;BME280;69214;55.880;37.542;2023-11-21T12:25:30;98547.03;;;-7.62;72.25
70952;BME280;69214;55.880;37.542;2023-11-21T12:27:59;98541.19;;;-7.66;72.32
70952;BME280;69214;55.880;37.542;2023-11-21T12:30:27;98558.59;;;-7.63;71.71
70952;BME280;69214;55.880;37.542;2023-11-21T12:32:57;98547.59;;;-7.68;71.79
70952;BME280;69214;55.880;37.542;2023-11-21T12:35:28;98562.50;;;-7.77;71.50
70952;BME280;69214;55.880;37.542;2023-11-21T12:37:55;98560.25;;;-7.81;71.62
70952;BME280;69214;55.880;37.542;2023-11-21T12:40:23;98551.75;;;-7.85;71.83
70952;BME280;69214;55.880;37.542;2023-11-21T12:42:52;98557.19;;;-7.87;71.54
70952;BME280;69214;55.880;37.542;2023-11-21T12:45:23;98573.38;;;-7.80;71.55
70952;BME280;69214;55.880;37.542;2023-11-21T12:47:59;98548.69;;;-7.90;72.10
70952;BME280;69214;55.880;37.542;2023-11-21T12:50:28;98567.09;;;-7.69;72.17
70952;BME280;69214;55.880;37.542;2023-11-21T12:52:58;98578.25;;;-7.66;72.16
70952;BME280;69214;55.880;37.542;2023-11-21T12:55:25;98560.28;;;-7.72;72.21
70952;BME280;69214;55.880;37.542;2023-11-21T12:57:53;98567.78;;;-7.67;72.23
70952;BME280;69214;55.880;37.542;2023-11-21T13:00:34;98570.03;;;-7.63;72.47
70952;BME280;69214;55.880;37.542;2023-11-21T13:03:07;98551.91;;;-7.67;72.68
70952;BME280;69214;55.880;37.542;2023-11-21T13:05:35;98566.97;;;-7.58;72.32
70952;BME280;69214;55.880;37.542;2023-11-21T13:08:06;98576.72;;;-7.59;72.37
70952;BME280;69214;55.880;37.542;2023-11-21T13:10:41;98573.25;;;-7.59;72.53
70952;BME280;69214;55.880;37.542;2023-11-21T13:13:10;98573.78;;;-7.65;72.26
70952;BME280;69214;55.880;37.542;2023-11-21T13:15:52;98584.53;;;-7.67;72.32
70952;BME280;69214;55.880;37.542;2023-11-21T13:18:19;98577.69;;;-7.69;72.20
70952;BME280;69214;55.880;37.542;2023-11-21T13:20:47;98591.50;;;-7.75;72.49
70952;BME280;69214;55.880;37.542;2023-11-21T13:23:13;98583.97;;;-7.80;72.28